Time;durP1;ratioP1;P1;durP2;ratioP2;P2;SDS_P1;SDS_P2;PMS_P1;PMS_P2;Temp;Humidity;BMP_temperature;BMP_pressure;BME280_temperature;BME280_humidity;BME280_pressure;Samples;Min_cycle;Max_cycle;Signal;HPM_P1;HPM_P2
2024/01/17 00:00:06;;;;;;;12.47;10.00;;;;;;;-2.75;92.65;100102.88;5037941;28;20029;-65
2024/01/17 00:02:31;;;;;;;12.53;10.37;;;;;;;-2.66;93.67;100115.69;5042506;28;20048;-64
2024/01/17 00:04:56;;;;;;;16.80;10.60;;;;;;;-2.75;93.13;100111.53;5042063;28;20558;-65
2024/01/17 00:07:24;;;;;;;10.70;9.27;;;;;;;-2.69;93.10;100113.16;5046720;28;20029;-65
2024/01/17 00:09:49;;;;;;;13.63;9.93;;;;;;;-2.72;92.79;100107.16;5078680;28;20096;-65
2024/01/17 00:12:15;;;;;;;14.53;9.50;;;;;;;-2.64;93.19;100113.94;5054589;28;20159;-65
2024/01/17 00:14:41;;;;;;;12.50;10.03;;;;;;;-2.72;93.64;100096.75;5054588;28;20025;-65
2024/01/17 00:17:06;;;;;;;12.17;9.53;;;;;;;-2.69;93.26;100094.94;5085617;28;20028;-65
2024/01/17 00:19:32;;;;;;;15.17;10.10;;;;;;;-2.79;93.20;100081.28;5055311;28;20471;-65
2024/01/17 00:21:58;;;;;;;15.97;8.93;;;;;;;-2.74;93.27;100086.38;5055893;28;20055;-65
2024/01/17 00:24:23;;;;;;;15.00;9.17;;;;;;;-2.73;93.50;100076.84;5056148;28;20505;-65
2024/01/17 00:26:49;;;;;;;13.63;9.70;;;;;;;-2.73;93.54;100072.50;5043676;28;20044;-65
2024/01/17 00:29:15;;;;;;;16.83;9.70;;;;;;;-2.77;93.40;100066.47;5040043;28;20552;-65
2024/01/17 00:31:41;;;;;;;15.97;10.30;;;;;;;-2.80;93.57;100058.72;5037724;28;20033;-65
2024/01/17 00:34:06;;;;;;;16.00;9.80;;;;;;;-2.81;93.20;100066.59;5045696;28;20629;-65
2024/01/17 00:36:32;;;;;;;15.03;9.43;;;;;;;-2.86;94.06;100061.47;5051012;28;20569;-65
2024/01/17 00:38:57;;;;;;;14.03;9.53;;;;;;;-2.86;93.65;100052.81;5047523;28;20017;-65
2024/01/17 00:41:23;;;;;;;17.30;10.10;;;;;;;-2.88;93.79;100049.38;5087189;28;20436;-65
2024/01/17 00:43:48;;;;;;;16.17;9.83;;;;;;;-2.91;94.13;100034.72;5042940;28;20112;-65
2024/01/17 00:46:13;;;;;;;16.70;10.03;;;;;;;-2.94;94.17;100021.78;5034685;28;20035;-65
2024/01/17 00:48:39;;;;;;;13.77;9.80;;;;;;;-2.97;94.25;100016.63;5084969;28;20384;-65
2024/01/17 00:51:04;;;;;;;12.60;9.40;;;;;;;-2.88;94.86;100033.75;5086759;28;20021;-65
2024/01/17 00:53:30;;;;;;;17.60;9.77;;;;;;;-2.89;93.85;100022.50;5043061;28;20037;-65
2024/01/17 00:55:55;;;;;;;12.07;8.63;;;;;;;-2.84;93.88;100017.22;5047721;28;20108;-65
2024/01/17 00:58:21;;;;;;;17.00;9.47;;;;;;;-2.87;93.72;100007.72;5042459;28;20021;-65
2024/01/17 01:00:47;;;;;;;14.40;9.57;;;;;;;-2.97;94.62;99982.81;5035026;28;20033;-65
2024/01/17 01:03:12;;;;;;;14.07;10.17;;;;;;;-2.90;94.01;99986.97;5038572;28;20087;-65
2024/01/17 01:05:39;;;;;;;12.97;9.70;;;;;;;-2.89;94.01;99995.63;5032728;28;20053;-65
2024/01/17 01:08:05;;;;;;;18.23;9.80;;;;;;;-2.93;94.15;99988.81;5033816;28;20022;-65
2024/01/17 01:10:30;;;;;;;12.73;9.40;;;;;;;-3.00;93.51;99977.66;5034678;28;20040;-65
2024/01/17 01:12:56;;;;;;;12.27;9.53;;;;;;;-2.99;94.31;99987.19;5036131;28;20096;-65
2024/01/17 01:15:21;;;;;;;18.53;10.93;;;;;;;-3.00;93.72;99991.53;5051327;28;20235;-65
2024/01/17 01:17:47;;;;;;;11.50;9.23;;;;;;;-2.99;93.88;99982.84;5046024;28;20021;-65
2024/01/17 01:20:12;;;;;;;13.93;9.60;;;;;;;-2.97;94.66;99983.66;5041751;28;20021;-65
2024/01/17 01:22:37;;;;;;;16.60;9.20;;;;;;;-3.00;94.35;99969.84;5049653;28;20369;-65
2024/01/17 01:25:04;;;;;;;13.53;9.20;;;;;;;-3.00;94.49;99952.53;5047132;28;20040;-65
2024/01/17 01:27:29;;;;;;;14.73;9.37;;;;;;;-2.93;93.55;99961.03;5032386;28;20480;-65
2024/01/17 01:29:54;;;;;;;13.83;9.13;;;;;;;-2.94;93.69;99958.47;5045714;28;20037;-65
2024/01/17 01:32:20;;;;;;;14.20;8.43;;;;;;;-2.93;93.72;99968.00;5047675;28;20383;-65
2024/01/17 01:34:45;;;;;;;13.17;9.47;;;;;;;-2.94;94.19;99963.66;5033890;28;20033;-65
2024/01/17 01:37:10;;;;;;;15.63;10.00;;;;;;;-2.93;94.50;99961.03;5038230;28;20029;-65
2024/01/17 01:39:36;;;;;;;16.43;9.63;;;;;;;-2.87;94.24;99960.91;5046937;28;20025;-65
2024/01/17 01:42:02;;;;;;;12.20;9.00;;;;;;;-2.88;93.84;99963.53;5050073;28;20024;-65
2024/01/17 01:44:27;;;;;;;12.80;9.07;;;;;;;-2.92;93.52;99959.28;5048846;28;20476;-65
2024/01/17 01:46:54;;;;;;;10.47;9.37;;;;;;;-3.03;93.73;99955.19;5036355;28;20025;-65
2024/01/17 01:49:19;;;;;;;15.30;10.07;;;;;;;-3.06;94.08;99957.88;5033754;28;20033;-65
2024/01/17 01:51:48;;;;;;;16.53;9.00;;;;;;;-3.20;93.71;99946.91;5036667;28;20365;-65
2024/01/17 01:54:16;;;;;;;19.13;8.77;;;;;;;-3.09;94.29;99963.13;5044305;28;20056;-65
2024/01/17 01:56:42;;;;;;;13.60;9.70;;;;;;;-3.06;93.97;99962.19;5039732;28;20029;-65
2024/01/17 01:59:08;;;;;;;12.03;8.57;;;;;;;-3.08;94.25;99949.22;5037486;28;20025;-65
2024/01/17 02:01:39;;;;;;;14.80;9.33;;;;;;;-3.18;93.82;99932.09;5032879;28;20037;-65
2024/01/17 02:04:04;;;;;;;16.43;8.97;;;;;;;-3.10;93.88;99950.16;5042051;28;20179;-65
2024/01/17 02:06:33;;;;;;;13.90;9.67;;;;;;;-3.09;94.34;99944.03;5033981;28;20540;-65
2024/01/17 02:09:00;;;;;;;13.70;10.27;;;;;;;-3.07;93.63;99943.13;5033037;28;20025;-65
2024/01/17 02:11:28;;;;;;;12.37;9.43;;;;;;;-3.11;93.25;99928.50;5043889;28;20033;-65
2024/01/17 02:13:53;;;;;;;15.30;9.07;;;;;;;-3.10;93.82;99942.34;5043378;28;20059;-65
2024/01/17 02:16:19;;;;;;;10.13;8.60;;;;;;;-3.17;93.61;99922.59;5033956;28;20033;-65
2024/01/17 02:18:47;;;;;;;15.57;9.20;;;;;;;-3.18;93.61;99926.91;5029209;28;20021;-65
2024/01/17 02:21:12;;;;;;;11.20;9.17;;;;;;;-3.23;93.84;99916.63;5047047;28;20033;-65
2024/01/17 02:23:38;;;;;;;15.50;9.33;;;;;;;-3.21;93.79;99924.38;5047059;28;20075;-65
2024/01/17 02:26:06;;;;;;;11.67;9.03;;;;;;;-3.25;93.96;99914.94;5041131;28;20026;-65
2024/01/17 02:28:31;;;;;;;12.30;9.17;;;;;;;-3.24;94.16;99908.84;5034008;28;20490;-65
2024/01/17 02:30:58;;;;;;;14.83;10.03;;;;;;;-3.23;94.32;99898.41;5031507;28;20025;-65
2024/01/17 02:33:29;;;;;;;16.13;9.30;;;;;;;-3.18;94.03;99892.25;5044009;28;20028;-65
2024/01/17 02:35:54;;;;;;;10.37;8.33;;;;;;;-3.16;94.11;99893.06;5048521;28;20029;-65
2024/01/17 02:38:22;;;;;;;11.80;9.13;;;;;;;-3.26;94.07;99874.25;5074497;28;20065;-65
2024/01/17 02:40:47;;;;;;;18.97;9.77;;;;;;;-3.16;94.38;99883.53;5041504;28;20120;-65
2024/01/17 02:43:12;;;;;;;14.83;9.83;;;;;;;-3.29;94.07;99851.75;5031065;28;20388;-65
2024/01/17 02:45:38;;;;;;;13.50;8.37;;;;;;;-3.15;94.31;99864.41;5032284;28;20032;-65
2024/01/17 02:48:04;;;;;;;15.17;9.10;;;;;;;-3.22;93.99;99853.31;5040232;28;20025;-65
2024/01/17 02:50:30;;;;;;;13.00;9.57;;;;;;;-3.18;94.03;99858.44;5044507;28;20033;-65
2024/01/17 02:52:58;;;;;;;13.13;8.90;;;;;;;-3.32;94.30;99838.84;5015752;28;20025;-65
2024/01/17 02:55:23;;;;;;;17.03;8.60;;;;;;;-3.35;93.91;99831.09;5023314;28;20031;-65
2024/01/17 02:57:52;;;;;;;15.20;8.50;;;;;;;-3.37;93.91;99832.03;5048673;28;20025;-65
2024/01/17 03:00:19;;;;;;;11.67;8.13;;;;;;;-3.26;93.71;99840.44;5048176;28;20047;-65
2024/01/17 03:02:44;;;;;;;12.30;8.63;;;;;;;-3.40;93.92;99806.94;5043609;28;20029;-65
2024/01/17 03:05:12;;;;;;;11.47;9.27;;;;;;;-3.29;93.76;99820.56;5034034;28;20065;-65
2024/01/17 03:07:38;;;;;;;15.37;9.23;;;;;;;-3.29;94.16;99822.31;5040158;28;20467;-65
2024/01/17 03:10:03;;;;;;;13.50;9.07;;;;;;;-3.40;93.95;99804.34;5032081;28;20037;-65
2024/01/17 03:12:29;;;;;;;12.33;8.57;;;;;;;-3.32;94.09;99820.63;5029647;28;20404;-65
2024/01/17 03:14:54;;;;;;;13.73;9.10;;;;;;;-3.29;94.39;99828.38;5042009;28;20024;-65
2024/01/17 03:17:20;;;;;;;10.97;8.70;;;;;;;-3.29;93.87;99832.72;5037521;28;20491;-65
2024/01/17 03:19:46;;;;;;;12.10;9.40;;;;;;;-3.30;93.96;99830.97;5033042;28;20488;-65
2024/01/17 03:22:12;;;;;;;11.40;8.13;;;;;;;-3.37;93.87;99813.84;5030569;28;20037;-65
2024/01/17 03:24:38;;;;;;;12.77;7.83;;;;;;;-3.33;94.01;99821.50;5030404;28;20145;-65
2024/01/17 03:27:06;;;;;;;14.20;8.77;;;;;;;-3.36;94.09;99812.94;5040768;28;20258;-65
2024/01/17 03:29:32;;;;;;;16.27;9.70;;;;;;;-3.34;94.39;99813.75;5038407;28;20625;-65
2024/01/17 03:31:57;;;;;;;11.37;8.57;;;;;;;-3.39;94.09;99800.84;5033976;28;20025;-65
2024/01/17 03:34:23;;;;;;;12.63;8.53;;;;;;;-3.30;94.16;99797.19;5045423;28;20025;-65
2024/01/17 03:36:48;;;;;;;13.17;9.60;;;;;;;-3.30;94.36;99787.63;5033904;28;20032;-65
2024/01/17 03:39:14;;;;;;;9.77;7.70;;;;;;;-3.43;93.62;99761.09;5042278;28;20036;-65
2024/01/17 03:41:39;;;;;;;12.40;7.73;;;;;;;-3.38;93.92;99767.91;5045813;28;20028;-65
2024/01/17 03:44:05;;;;;;;12.20;8.87;;;;;;;-3.45;94.35;99751.63;5031245;28;20040;-65
2024/01/17 03:46:32;;;;;;;15.10;8.73;;;;;;;-3.38;94.08;99763.59;5031191;28;20376;-65
2024/01/17 03:48:57;;;;;;;10.93;8.77;;;;;;;-3.38;93.67;99744.53;5040371;28;20086;-65
2024/01/17 03:51:23;;;;;;;16.63;9.67;;;;;;;-3.48;94.22;99717.91;5046907;28;20535;-65
2024/01/17 03:53:48;;;;;;;17.20;8.23;;;;;;;-3.45;94.22;99723.88;5036716;28;20036;-65
2024/01/17 03:56:14;;;;;;;13.77;8.63;;;;;;;-3.48;94.19;99697.97;5030718;28;20021;-65
2024/01/17 03:58:44;;;;;;;12.87;8.60;;;;;;;-3.43;94.36;99693.50;5049894;28;20025;-65
2024/01/17 04:01:13;;;;;;;15.93;9.45;;;;;;;-3.35;94.44;99719.34;5044218;28;20053;-65
2024/01/17 04:03:45;;;;;;;13.40;8.50;;;;;;;-3.32;94.12;99706.25;5030017;28;20388;-65
2024/01/17 04:06:11;;;;;;;10.20;8.70;;;;;;;-3.35;93.80;99693.34;5029791;28;20171;-65
2024/01/17 04:08:37;;;;;;;12.87;8.97;;;;;;;-3.34;94.39;99682.03;5047436;28;20522;-65
2024/01/17 04:11:03;;;;;;;11.03;9.03;;;;;;;-3.32;94.35;99684.63;5032543;28;20115;-65
2024/01/17 04:13:28;;;;;;;15.57;8.37;;;;;;;-3.31;94.34;99683.72;5046439;28;20052;-67
2024/01/17 04:15:54;;;;;;;14.80;9.00;;;;;;;-3.38;94.09;99659.63;5068633;28;20487;-65
2024/01/17 04:18:19;;;;;;;11.97;7.90;;;;;;;-3.39;94.53;99651.84;5040066;28;20504;-65
2024/01/17 04:20:45;;;;;;;12.80;9.73;;;;;;;-3.33;94.48;99652.53;5031495;28;20036;-65
2024/01/17 04:23:10;;;;;;;13.37;8.40;;;;;;;-3.42;94.22;99632.84;5045576;28;20471;-65
2024/01/17 04:25:38;;;;;;;13.17;9.00;;;;;;;-3.34;94.48;99650.84;5047262;28;20033;-65
2024/01/17 04:28:09;;;;;;;12.73;8.00;;;;;;;-3.31;94.68;99645.56;5042902;28;20549;-65
2024/01/17 04:30:35;;;;;;;13.63;7.80;;;;;;;-3.30;94.21;99636.03;5045832;28;20029;-65
2024/01/17 04:33:03;;;;;;;13.10;9.23;;;;;;;-3.29;94.35;99633.41;5044189;28;20154;-65
2024/01/17 04:35:28;;;;;;;12.63;7.83;;;;;;;-3.25;94.29;99628.97;5041647;28;20140;-65
2024/01/17 04:37:53;;;;;;;10.23;8.93;;;;;;;-3.27;94.55;99604.75;5044752;28;20033;-65
2024/01/17 04:40:20;;;;;;;11.93;7.83;;;;;;;-3.15;94.72;99614.81;5044899;28;20065;-65
2024/01/17 04:42:48;;;;;;;13.13;8.10;;;;;;;-3.16;94.71;99604.47;5045808;28;20471;-65
2024/01/17 04:45:17;;;;;;;14.37;7.93;;;;;;;-3.13;94.27;99606.97;5039524;28;20387;-65
2024/01/17 04:47:43;;;;;;;13.07;8.70;;;;;;;-3.13;94.08;99606.97;5052324;28;20419;-65
2024/01/17 04:50:09;;;;;;;14.80;7.83;;;;;;;-3.14;94.22;99605.28;5051024;28;20396;-65
2024/01/17 04:52:34;;;;;;;12.70;8.37;;;;;;;-3.26;94.38;99585.66;5043664;28;20021;-65
2024/01/17 04:55:02;;;;;;;12.57;8.60;;;;;;;-3.17;94.23;99582.81;5048971;28;20104;-65
2024/01/17 04:57:28;;;;;;;11.97;8.10;;;;;;;-3.23;94.29;99568.22;5046603;28;20033;-65
2024/01/17 04:59:53;;;;;;;13.73;9.37;;;;;;;-3.20;93.81;99567.31;5036103;28;20529;-65
2024/01/17 05:02:19;;;;;;;14.13;9.63;;;;;;;-3.25;94.03;99548.38;5043531;28;20029;-65
2024/01/17 05:04:44;;;;;;;16.23;8.60;;;;;;;-3.15;93.89;99565.41;5037379;28;20472;-65
2024/01/17 05:07:12;;;;;;;13.93;8.87;;;;;;;-3.14;93.63;99572.31;5033045;28;20022;-65
2024/01/17 05:09:37;;;;;;;11.17;8.13;;;;;;;-3.12;93.71;99565.31;5043885;28;20025;-65
2024/01/17 05:12:04;;;;;;;12.40;8.63;;;;;;;-3.32;93.69;99529.50;5048549;28;20033;-65
2024/01/17 05:14:29;;;;;;;15.77;8.70;;;;;;;-3.09;93.88;99548.78;5035317;28;20400;-65
2024/01/17 05:16:57;;;;;;;12.07;8.90;;;;;;;-3.08;93.69;99543.56;5035519;28;20017;-65
2024/01/17 05:19:23;;;;;;;15.87;8.03;;;;;;;-3.11;93.75;99542.78;5035371;28;20017;-65
2024/01/17 05:21:48;;;;;;;9.30;7.80;;;;;;;-3.04;93.41;99539.94;5033881;28;20477;-65
2024/01/17 05:24:13;;;;;;;10.27;7.53;;;;;;;-3.03;93.31;99536.47;5045060;28;20035;-65
2024/01/17 05:26:39;;;;;;;9.83;8.10;;;;;;;-3.13;93.23;99516.81;5036053;28;20496;-65
2024/01/17 05:29:06;;;;;;;10.37;7.60;;;;;;;-3.05;93.36;99535.66;5040767;28;20107;-65
2024/01/17 05:31:31;;;;;;;12.53;8.90;;;;;;;-3.06;93.46;99531.38;5041848;28;20036;-65
2024/01/17 05:33:57;;;;;;;10.50;8.27;;;;;;;-3.07;93.13;99513.19;5040787;28;20025;-65
2024/01/17 05:36:22;;;;;;;12.50;8.13;;;;;;;-3.10;93.80;99505.47;5044179;28;20028;-65
2024/01/17 05:38:47;;;;;;;11.83;8.10;;;;;;;-3.14;93.97;99509.09;5035260;28;20060;-65
2024/01/17 05:41:13;;;;;;;15.17;8.73;;;;;;;-3.10;93.56;99508.09;5047674;28;20035;-65
2024/01/17 05:43:38;;;;;;;11.73;8.90;;;;;;;-3.08;93.41;99507.16;5049832;28;20017;-65
2024/01/17 05:46:04;;;;;;;14.23;8.37;;;;;;;-3.08;93.64;99498.50;5037596;28;20361;-65
2024/01/17 05:48:29;;;;;;;9.47;7.97;;;;;;;-3.17;93.43;99475.38;5041186;28;20020;-65
2024/01/17 05:50:54;;;;;;;12.83;8.53;;;;;;;-3.07;93.68;99497.59;5042853;28;20055;-65
2024/01/17 05:53:20;;;;;;;11.67;8.60;;;;;;;-3.09;94.22;99494.16;5080041;28;20025;-65
2024/01/17 05:55:45;;;;;;;14.03;9.67;;;;;;;-3.10;93.78;99489.88;5042394;28;20100;-65
2024/01/17 05:58:11;;;;;;;11.30;8.20;;;;;;;-3.20;93.41;99476.31;5038199;28;20549;-65
2024/01/17 06:00:40;;;;;;;12.70;8.20;;;;;;;-3.12;93.39;99489.91;5035394;28;20552;-65
2024/01/17 06:03:06;;;;;;;12.47;8.60;;;;;;;-3.18;93.60;99486.66;5042474;28;20028;-65
2024/01/17 06:05:31;;;;;;;14.27;9.60;;;;;;;-3.11;93.67;99488.19;5035798;28;20094;-65
2024/01/17 06:07:56;;;;;;;15.20;9.40;;;;;;;-3.09;93.53;99487.25;5046730;28;20107;-65
2024/01/17 06:10:23;;;;;;;21.17;9.60;;;;;;;-3.18;93.57;99461.50;5043726;28;20029;-65
2024/01/17 06:12:49;;;;;;;16.53;8.90;;;;;;;-3.13;92.91;99475.22;5042972;28;20051;-65
2024/01/17 06:15:17;;;;;;;17.70;9.77;;;;;;;-3.13;93.97;99472.63;5082806;28;20462;-65
2024/01/17 06:17:43;;;;;;;16.23;8.83;;;;;;;-3.10;93.64;99462.13;5037667;28;20021;-64
2024/01/17 06:20:11;;;;;;;15.40;8.80;;;;;;;-3.14;93.31;99470.94;5037770;28;20100;-65
2024/01/17 06:22:36;;;;;;;14.83;8.60;;;;;;;-3.14;93.54;99459.69;5037065;28;20033;-65
2024/01/17 06:25:07;;;;;;;16.83;9.60;;;;;;;-3.16;92.98;99459.72;5032455;28;20121;-64
2024/01/17 06:27:35;;;;;;;12.37;8.33;;;;;;;-3.31;93.12;99431.56;5044966;28;20472;-64
2024/01/17 06:30:03;;;;;;;18.43;9.67;;;;;;;-3.21;93.32;99448.59;5037431;28;20115;-65
2024/01/17 06:32:29;;;;;;;13.23;8.93;;;;;;;-3.31;93.98;99426.38;5032535;28;20056;-65
2024/01/17 06:34:54;;;;;;;16.13;9.57;;;;;;;-3.26;93.94;99437.50;5035397;28;20091;-65
2024/01/17 06:37:19;;;;;;;14.30;9.40;;;;;;;-3.24;93.80;99440.88;5033871;28;20025;-65
2024/01/17 06:39:45;;;;;;;15.90;10.40;;;;;;;-3.20;93.61;99429.50;5044840;28;20035;-64
2024/01/17 06:42:10;;;;;;;11.57;9.77;;;;;;;-3.25;93.43;99418.38;5043985;28;20057;-66
2024/01/17 06:44:36;;;;;;;18.13;9.90;;;;;;;-3.31;94.24;99409.03;5048173;28;20032;-64
2024/01/17 06:47:02;;;;;;;14.80;9.17;;;;;;;-3.20;93.62;99426.91;5047193;28;20369;-64
2024/01/17 06:49:27;;;;;;;11.83;9.17;;;;;;;-3.25;93.51;99415.78;5047305;28;20472;-64
2024/01/17 06:51:52;;;;;;;11.63;8.87;;;;;;;-3.22;93.57;99416.53;5042122;28;20472;-64
2024/01/17 06:54:18;;;;;;;12.23;9.43;;;;;;;-3.18;93.63;99419.03;5052129;28;20067;-65
2024/01/17 06:56:44;;;;;;;16.43;9.80;;;;;;;-3.13;94.00;99414.56;5034242;28;20076;-65
2024/01/17 06:59:10;;;;;;;10.43;8.23;;;;;;;-3.09;93.95;99410.97;5030618;28;20025;-64
2024/01/17 07:01:36;;;;;;;14.10;9.43;;;;;;;-3.12;93.36;99400.66;5030672;28;20385;-65
2024/01/17 07:04:02;;;;;;;16.60;10.83;;;;;;;-3.20;92.94;99378.34;5031802;28;20028;-65
2024/01/17 07:06:28;;;;;;;15.33;9.60;;;;;;;-3.21;93.49;99379.28;5032103;28;20384;-64
2024/01/17 07:08:53;;;;;;;15.43;9.13;;;;;;;-3.21;93.42;99379.28;5047942;28;20025;-65
2024/01/17 07:11:18;;;;;;;15.40;9.57;;;;;;;-3.15;92.86;99380.81;5051602;28;20024;-64
2024/01/17 07:13:44;;;;;;;14.13;9.80;;;;;;;-3.18;92.74;99369.66;5050437;28;20017;-64
2024/01/17 07:16:14;;;;;;;15.53;8.97;;;;;;;-3.11;93.18;99368.59;5050669;28;20111;-65
2024/01/17 07:18:39;;;;;;;;;;;;;;;-3.09;93.33;99369.38;5052033;28;20383;-65
2024/01/17 07:21:06;;;;;;;11.83;8.40;;;;;;;-3.13;92.20;99370.38;5051864;28;19913;-65
2024/01/17 07:23:32;;;;;;;15.13;9.10;;;;;;;-3.16;92.55;99363.50;5049158;28;20045;-64
2024/01/17 07:25:58;;;;;;;16.77;9.03;;;;;;;-3.16;92.74;99355.72;5047107;28;20479;-64
2024/01/17 07:28:24;;;;;;;11.27;8.70;;;;;;;-3.11;93.29;99356.44;5033658;28;20037;-65
2024/01/17 07:30:50;;;;;;;13.57;9.20;;;;;;;-3.10;93.18;99350.31;5040957;28;20028;-65
2024/01/17 07:33:15;;;;;;;11.20;8.87;;;;;;;-3.17;92.48;99332.38;5047176;28;20029;-65
2024/01/17 07:35:40;;;;;;;11.17;8.57;;;;;;;-3.13;92.30;99333.97;5070418;28;20021;-65
2024/01/17 07:38:08;;;;;;;14.03;8.83;;;;;;;-3.11;92.54;99326.97;5044064;28;20021;-65
2024/01/17 07:40:34;;;;;;;11.90;9.63;;;;;;;-3.12;92.72;99326.09;5039057;28;20044;-65
2024/01/17 07:42:59;;;;;;;16.50;9.23;;;;;;;-3.08;93.03;99312.13;5071181;28;20041;-65
2024/01/17 07:45:28;;;;;;;10.23;7.80;;;;;;;-3.04;92.58;99316.31;5035318;28;20021;-65
2024/01/17 07:47:53;;;;;;;13.10;9.50;;;;;;;-3.04;92.69;99298.09;5034120;28;20022;-65
2024/01/17 07:50:19;;;;;;;15.47;10.03;;;;;;;-3.00;92.62;99298.84;5034623;28;20024;-65
2024/01/17 07:52:45;;;;;;;17.03;8.87;;;;;;;-2.96;92.48;99300.47;5039312;28;20025;-65
2024/01/17 07:55:10;;;;;;;16.33;9.33;;;;;;;-2.92;92.49;99288.22;5041312;28;20025;-66
2024/01/17 07:57:36;;;;;;;11.67;8.93;;;;;;;-2.89;92.15;99281.16;5034309;28;20033;-65
2024/01/17 08:00:01;;;;;;;13.03;9.60;;;;;;;-2.92;92.43;99263.03;5034376;28;20518;-65
2024/01/17 08:02:27;;;;;;;11.80;9.43;;;;;;;-2.85;92.43;99274.13;5031787;28;20079;-65
2024/01/17 08:04:53;;;;;;;16.43;9.03;;;;;;;-2.96;92.33;99256.25;5042317;28;20026;-65
2024/01/17 08:07:24;;;;;;;12.40;9.00;;;;;;;-2.82;92.09;99280.06;5035096;28;20032;-65
2024/01/17 08:09:56;;;;;;;15.60;9.53;;;;;;;-2.78;92.39;99268.63;5036910;28;20064;-65
2024/01/17 08:12:21;;;;;;;12.27;9.70;;;;;;;-2.76;92.09;99261.63;5044560;28;20411;-62
2024/01/17 08:14:47;;;;;;;13.40;8.63;;;;;;;-2.75;91.91;99257.28;5043135;28;20017;-61
2024/01/17 08:17:16;;;;;;;21.47;9.47;;;;;;;-2.77;92.72;99249.50;5040836;28;20472;-62
2024/01/17 08:19:41;;;;;;;13.63;9.80;;;;;;;-2.69;90.98;99261.41;5034097;28;20025;-62
2024/01/17 08:22:06;;;;;;;13.97;8.63;;;;;;;-2.70;91.08;99254.53;5036393;28;20032;-61
2024/01/17 08:24:32;;;;;;;23.33;10.30;;;;;;;-2.63;91.43;99264.66;5043772;28;20391;-61
2024/01/17 08:26:58;;;;;;;14.83;8.87;;;;;;;-2.60;91.92;99254.13;5070575;28;20033;-61
2024/01/17 08:29:24;;;;;;;13.10;9.60;;;;;;;-2.54;91.39;99247.88;5038563;28;20022;-61
2024/01/17 08:31:50;;;;;;;13.23;8.97;;;;;;;-2.60;90.64;99228.13;5050938;28;20160;-61
2024/01/17 08:34:15;;;;;;;13.60;9.40;;;;;;;-2.54;90.88;99238.31;5082394;28;20029;-62
2024/01/17 08:36:41;;;;;;;15.73;9.40;;;;;;;-2.57;90.96;99221.94;5083254;28;20052;-62
2024/01/17 08:39:06;;;;;;;12.23;8.90;;;;;;;-2.51;90.71;99232.13;5081844;28;20378;-62
2024/01/17 08:41:33;;;;;;;16.23;10.37;;;;;;;-2.52;89.75;99223.50;5047190;28;20024;-62
2024/01/17 08:44:00;;;;;;;13.23;9.27;;;;;;;-2.58;89.24;99207.25;5051106;28;20496;-62
2024/01/17 08:46:26;;;;;;;13.83;9.67;;;;;;;-2.49;90.33;99222.53;5043284;28;20021;-61
2024/01/17 08:48:51;;;;;;;13.73;9.77;;;;;;;-2.53;89.75;99203.59;5033080;28;20018;-62
2024/01/17 08:51:17;;;;;;;15.37;10.47;;;;;;;-2.58;88.99;99187.28;5034160;28;20025;-61
2024/01/17 08:53:43;;;;;;;11.27;8.33;;;;;;;-2.44;89.76;99201.53;5033891;28;20041;-61
2024/01/17 08:56:09;;;;;;;17.27;9.20;;;;;;;-2.39;89.52;99197.00;5032487;28;20059;-62
2024/01/17 08:58:37;;;;;;;14.97;9.53;;;;;;;-2.37;89.45;99187.41;5034316;28;20017;-61
2024/01/17 09:01:03;;;;;;;14.07;10.33;;;;;;;-2.43;89.15;99166.81;5034559;28;20029;-61
2024/01/17 09:03:32;;;;;;;13.93;9.00;;;;;;;-2.42;88.91;99156.31;5017511;28;20079;-61
2024/01/17 09:05:59;;;;;;;12.07;9.17;;;;;;;-2.32;88.99;99164.66;5034144;28;20029;-62
2024/01/17 09:08:25;;;;;;;18.10;10.23;;;;;;;-2.25;88.83;99165.25;5049750;28;20029;-61
2024/01/17 09:10:50;;;;;;;12.30;10.23;;;;;;;-2.22;88.34;99170.34;5083898;28;20380;-61
2024/01/17 09:13:16;;;;;;;13.70;8.90;;;;;;;-2.31;88.67;99148.97;5039423;28;20079;-61
2024/01/17 09:15:41;;;;;;;15.63;9.60;;;;;;;-2.15;89.17;99167.44;5033024;28;20507;-61
2024/01/17 09:18:07;;;;;;;12.90;9.07;;;;;;;-2.09;87.86;99161.16;5034841;28;20412;-61
2024/01/17 09:20:33;;;;;;;13.47;10.10;;;;;;;-2.06;88.00;99161.91;5033959;28;20087;-61
2024/01/17 09:22:58;;;;;;;16.17;9.10;;;;;;;-1.98;88.35;99165.94;5034642;28;20582;-61
2024/01/17 09:25:24;;;;;;;17.20;9.47;;;;;;;-2.01;87.93;99143.47;5034549;28;20036;-61
2024/01/17 09:27:49;;;;;;;19.17;9.63;;;;;;;-1.88;88.67;99154.28;5034771;28;20038;-61
2024/01/17 09:30:17;;;;;;;13.03;9.60;;;;;;;-1.95;88.86;99135.41;5032874;28;20523;-61
2024/01/17 09:32:47;;;;;;;13.03;9.23;;;;;;;-1.84;88.25;99151.47;5036193;28;20037;-61
2024/01/17 09:35:15;;;;;;;19.17;9.70;;;;;;;-1.84;88.28;99145.41;5037492;28;20013;-61
2024/01/17 09:37:41;;;;;;;19.20;10.03;;;;;;;-1.81;87.89;99141.84;5033435;28;20143;-61
2024/01/17 09:40:08;;;;;;;10.07;8.40;;;;;;;-1.86;88.41;99139.41;5033171;28;20503;-61
2024/01/17 09:42:36;;;;;;;17.20;10.20;;;;;;;-1.78;87.20;99149.53;5044898;28;20091;-61
2024/01/17 09:45:01;;;;;;;19.57;9.50;;;;;;;-1.85;87.36;99135.91;5054098;28;20039;-61
2024/01/17 09:47:31;;;;;;;14.33;10.27;;;;;;;-1.79;87.22;99146.09;5044040;28;20033;-61
2024/01/17 09:49:56;;;;;;;14.38;9.40;;;;;;;-1.84;86.29;99127.19;5033121;28;20033;-61
2024/01/17 09:52:22;;;;;;;16.57;9.33;;;;;;;-1.73;86.35;99150.22;5033224;28;20022;-61
2024/01/17 09:54:51;;;;;;;15.30;10.03;;;;;;;-1.79;86.39;99126.97;5033054;28;20143;-61
2024/01/17 09:57:25;;;;;;;12.63;9.27;;;;;;;-1.75;86.87;99125.97;5031408;28;20123;-61
2024/01/17 09:59:57;;;;;;;15.07;9.33;;;;;;;-1.88;86.61;99110.81;5032684;28;20026;-61
2024/01/17 10:02:24;;;;;;;16.90;9.97;;;;;;;-1.77;86.65;99127.78;5031487;28;20488;-61
2024/01/17 10:04:53;;;;;;;15.33;10.17;;;;;;;-1.76;86.10;99124.28;5033094;28;20030;-61
2024/01/17 10:07:18;;;;;;;13.00;9.73;;;;;;;-1.87;86.28;99111.66;5033103;28;20033;-61
2024/01/17 10:09:44;;;;;;;11.93;10.37;;;;;;;-1.75;87.25;99123.34;5031627;28;20447;-61
2024/01/17 10:12:12;;;;;;;15.00;10.10;;;;;;;-1.80;87.04;99102.69;5031117;28;20025;-61
2024/01/17 10:14:38;;;;;;;15.07;10.07;;;;;;;-1.63;87.14;99117.63;5032936;28;20026;-61
2024/01/17 10:17:05;;;;;;;21.13;11.30;;;;;;;-1.60;86.94;99112.28;5032681;28;20095;-61
2024/01/17 10:19:30;;;;;;;14.40;10.23;;;;;;;-1.57;86.68;99119.13;5032844;28;20033;-61
2024/01/17 10:21:56;;;;;;;17.03;10.27;;;;;;;-1.68;85.68;99102.16;5032966;28;20083;-61
2024/01/17 10:24:21;;;;;;;15.03;9.20;;;;;;;-1.66;84.87;99095.16;5031638;28;20054;-61
2024/01/17 10:26:48;;;;;;;14.23;10.00;;;;;;;-1.57;85.18;99109.56;5030413;28;20029;-61
2024/01/17 10:29:13;;;;;;;16.33;10.40;;;;;;;-1.55;85.36;99105.13;5036224;28;20474;-61
2024/01/17 10:31:40;;;;;;;18.40;9.40;;;;;;;-1.66;85.05;99086.50;5047724;28;20167;-61
2024/01/17 10:34:05;;;;;;;14.87;9.80;;;;;;;-1.58;85.86;99099.22;5047956;28;20473;-61
2024/01/17 10:36:31;;;;;;;17.77;10.53;;;;;;;-1.57;85.90;99082.66;5047630;28;20040;-61
2024/01/17 10:39:06;;;;;;;15.93;10.67;;;;;;;-1.58;85.23;99067.94;5031412;28;20040;-61
2024/01/17 10:41:32;;;;;;;16.07;10.20;;;;;;;-1.47;85.77;99087.41;5030426;28;20021;-61
2024/01/17 10:44:02;;;;;;;18.77;10.97;;;;;;;-1.44;86.37;99076.00;5032591;28;20060;-61
2024/01/17 10:46:28;;;;;;;14.55;10.85;;;;;;;-1.53;85.52;99058.13;5032454;28;20469;-61
2024/01/17 10:48:54;;;;;;;15.93;11.77;;;;;;;-1.41;86.26;99075.88;5031338;28;20033;-61
2024/01/17 10:51:21;;;;;;;16.83;11.97;;;;;;;-1.43;85.46;99075.94;5032210;28;20035;-61
2024/01/17 10:53:53;;;;;;;17.80;12.60;;;;;;;-1.50;85.62;99053.66;5032190;28;20035;-61
2024/01/17 10:56:19;;;;;;;20.90;11.40;;;;;;;-1.41;86.36;99058.47;5031563;28;20044;-61
2024/01/17 10:58:52;;;;;;;18.07;12.47;;;;;;;-1.34;86.76;99061.66;5031991;28;20029;-61
2024/01/17 11:01:35;;;;;;;17.47;11.23;;;;;;;-1.32;86.40;99053.75;5047496;28;20022;-61
2024/01/17 11:04:28;;;;;;;19.53;12.47;;;;;;;-1.31;86.24;99052.88;5032123;28;20505;-61
2024/01/17 11:06:54;;;;;;;21.60;12.23;;;;;;;-1.29;86.29;99053.66;5032003;28;20025;-61
2024/01/17 11:09:22;;;;;;;23.47;12.13;;;;;;;-1.24;85.84;99049.91;5030833;28;20021;-61
2024/01/17 11:11:49;;;;;;;19.83;12.63;;;;;;;-1.23;85.37;99045.56;5047868;28;20033;-61
2024/01/17 11:14:17;;;;;;;23.03;13.10;;;;;;;-1.22;85.86;99042.88;5051424;28;20040;-61
2024/01/17 11:16:46;;;;;;;20.70;12.93;;;;;;;-1.22;85.67;99039.41;5038920;28;20033;-60
2024/01/17 11:19:12;;;;;;;24.20;13.10;;;;;;;-1.19;84.68;99034.06;5047119;28;20112;-61